Dryden, Michigan
Current Conditions -  °F | °C
As of 7:13 AM on Friday 28 Nov 2014 (Local Time) from KD95 Reporting Station
Clear Clear  
Wind Chill: 18°   Ceiling: Unl
Heat Index: 18°   Visibility: 10mi
Dew Point: 11°   Wind: 3mph
Humidity: 74%   Direction: 280°W
Pressure: 30.32"   Gusts: NA
Location:  42.95°N, 83.12°W
Report Text: KD95 281213Z AUTO 28003KT 10SM CLR M08/M12 A3032 RMK AO2 T10801119
Loading
Personal Weather Stations






























Interactive Weather Map New forecast layout! Learn more

10-Day Weather Forecast

Advertisements
Track Severe Weather on mobile